Time;durP1;ratioP1;P1;durP2;ratioP2;P2;SDS_P1;SDS_P2;PMS_P1;PMS_P2;Temp;Humidity;BMP_temperature;BMP_pressure;BME280_temperature;BME280_humidity;BME280_pressure;Samples;Min_cycle;Max_cycle;Signal;HPM_P1;HPM_P2
2022/03/28 00:01:39;;;;;;;15.00;6.60;;;;;;;5.95;36.94;100834.85;106507;1268;111617;-74
2022/03/28 00:04:11;;;;;;;11.90;6.50;;;;;;;5.96;36.75;100830.88;106803;1269;108838;-74
2022/03/28 00:06:43;;;;;;;13.50;6.60;;;;;;;5.98;36.65;100826.20;106308;1268;137313;-72
2022/03/28 00:09:15;;;;;;;15.50;6.90;;;;;;;5.99;36.76;100823.77;106494;1268;96599;-72
2022/03/28 00:11:47;;;;;;;19.40;7.20;;;;;;;6.00;36.72;100818.77;106406;1268;138036;-73
2022/03/28 00:14:19;;;;;;;16.30;6.90;;;;;;;6.02;36.91;100821.16;106441;1270;111213;-73
2022/03/28 00:16:51;;;;;;;12.50;6.70;;;;;;;6.02;36.81;100806.84;106594;1270;138343;-73
2022/03/28 00:19:24;;;;;;;15.80;7.10;;;;;;;6.03;36.79;100809.59;107910;1269;107453;-73
2022/03/28 00:21:56;;;;;;;13.00;6.60;;;;;;;6.04;36.71;100799.75;107965;1268;94453;-73
2022/03/28 00:24:28;;;;;;;12.00;6.60;;;;;;;6.05;36.78;100797.50;107910;1268;137768;-73
2022/03/28 00:27:01;;;;;;;14.20;6.50;;;;;;;6.07;36.93;100792.48;107982;1268;110138;-73
2022/03/28 00:29:33;;;;;;;12.40;6.30;;;;;;;6.10;36.83;100786.61;107896;1268;137387;-73
2022/03/28 00:32:06;;;;;;;13.30;6.30;;;;;;;6.12;36.73;100783.15;107503;1267;107676;-73
2022/03/28 00:34:39;;;;;;;16.90;6.40;;;;;;;6.15;36.66;100780.20;107869;1268;138223;-72
2022/03/28 00:37:11;;;;;;;12.30;5.90;;;;;;;6.18;36.61;100780.35;107435;1268;96456;-72
2022/03/28 00:39:44;;;;;;;14.40;6.50;;;;;;;6.22;36.40;100774.97;107180;1270;111443;-73
2022/03/28 00:42:16;;;;;;;15.40;5.90;;;;;;;6.25;36.34;100766.13;107822;1270;137253;-73
2022/03/28 00:44:48;;;;;;;12.00;5.80;;;;;;;6.29;36.24;100763.70;106990;1268;107753;-74
2022/03/28 00:47:19;;;;;;;11.70;5.70;;;;;;;6.31;36.15;100762.48;106431;1268;138172;-74
2022/03/28 00:49:52;;;;;;;11.40;5.50;;;;;;;6.33;36.29;100755.23;106646;1271;96456;-72
2022/03/28 00:52:24;;;;;;;13.40;5.90;;;;;;;6.35;36.34;100751.40;107081;1268;110022;-73
2022/03/28 00:54:58;;;;;;;14.20;6.20;;;;;;;6.35;35.96;100754.52;106883;1268;137352;-73
2022/03/28 00:57:32;;;;;;;13.40;6.00;;;;;;;6.36;36.06;100747.77;106535;1270;108864;-73
2022/03/28 01:00:09;;;;;;;10.80;5.50;;;;;;;6.38;36.06;100746.19;106326;1268;137683;-73
2022/03/28 01:02:41;;;;;;;12.90;5.40;;;;;;;6.39;35.90;100740.66;107256;1268;96491;-73
2022/03/28 01:05:14;;;;;;;13.40;6.00;;;;;;;6.40;36.08;100736.16;106388;1268;137396;-72
2022/03/28 01:07:47;;;;;;;13.60;5.10;;;;;;;6.42;36.17;100729.06;107153;1269;108807;-73
2022/03/28 01:10:19;;;;;;;11.20;5.50;;;;;;;6.43;35.83;100719.04;106727;1271;108917;-74
2022/03/28 01:12:51;;;;;;;11.20;4.80;;;;;;;6.44;35.74;100714.71;106460;1268;137211;-74
2022/03/28 01:15:24;;;;;;;12.10;5.70;;;;;;;6.46;35.76;100709.16;108015;1268;94754;-74
2022/03/28 01:18:09;;;;;;;18.10;5.60;;;;;;;6.49;35.70;100704.66;107790;1268;144308;-74
2022/03/28 01:20:42;;;;;;;11.70;5.40;;;;;;;6.50;35.47;100700.34;106944;1268;105654;-74
2022/03/28 01:23:14;;;;;;;16.50;5.80;;;;;;;6.50;35.49;100697.40;107862;1268;137554;-74
2022/03/28 01:25:51;;;;;;;14.90;5.10;;;;;;;6.52;35.62;100691.85;107529;1268;95239;-73
2022/03/28 01:28:23;;;;;;;;;;;;;;;6.53;35.69;100690.97;106469;1268;96444;-74
2022/03/28 01:30:55;;;;;;;11.70;5.30;;;;;;;6.52;35.71;100682.00;106381;1268;123408;-74
2022/03/28 01:33:27;;;;;;;13.90;5.30;;;;;;;6.53;35.60;100681.30;106456;1267;108849;-73
2022/03/28 01:35:59;;;;;;;11.60;5.40;;;;;;;6.54;35.61;100674.91;107740;1267;138056;-74
2022/03/28 01:38:31;;;;;;;10.90;5.80;;;;;;;6.54;35.59;100669.21;107259;1268;96462;-74
2022/03/28 01:41:03;;;;;;;12.20;5.30;;;;;;;6.53;35.66;100670.77;107176;1268;139609;-74
2022/03/28 01:43:35;;;;;;;11.10;6.00;;;;;;;6.53;35.57;100671.11;107408;1270;110080;-73
2022/03/28 01:46:07;;;;;;;9.10;5.10;;;;;;;6.52;35.62;100665.77;107275;1268;109035;-73
2022/03/28 01:48:39;;;;;;;11.60;5.70;;;;;;;6.51;35.62;100665.27;107761;1267;137100;-74
2022/03/28 01:51:11;;;;;;;11.60;5.80;;;;;;;6.48;35.78;100657.00;107413;1268;96464;-74
2022/03/28 01:53:43;;;;;;;14.10;5.70;;;;;;;6.46;35.80;100651.13;106335;1268;137293;-73
2022/03/28 01:56:15;;;;;;;11.50;5.80;;;;;;;6.46;35.72;100646.63;107292;1268;111425;-74
2022/03/28 01:58:47;;;;;;;11.10;5.10;;;;;;;6.45;35.93;100646.12;107858;1267;137861;-74
2022/03/28 02:01:19;;;;;;;8.70;5.20;;;;;;;6.43;35.75;100642.17;107881;1268;107650;-74
2022/03/28 02:03:51;;;;;;;11.50;5.60;;;;;;;6.40;35.73;100640.13;107949;1268;95129;-74
2022/03/28 02:06:23;;;;;;;11.90;5.70;;;;;;;6.37;35.98;100635.67;107818;1270;137089;-73
2022/03/28 02:08:56;;;;;;;11.50;5.70;;;;;;;6.33;36.02;100630.70;107939;1270;109928;-74
2022/03/28 02:11:28;;;;;;;12.30;5.20;;;;;;;6.29;36.30;100636.61;107840;1268;138142;-74
2022/03/28 02:14:00;;;;;;;14.30;6.10;;;;;;;6.26;36.09;100632.29;106882;1268;108849;-73
2022/03/28 02:16:32;;;;;;;9.00;5.20;;;;;;;6.24;36.14;100628.87;106316;1266;138264;-70
2022/03/28 02:19:04;;;;;;;11.20;6.00;;;;;;;6.21;36.19;100628.73;107486;1267;94753;-73
2022/03/28 02:21:37;;;;;;;10.90;5.50;;;;;;;6.17;36.52;100629.80;106490;1268;110571;-73
2022/03/28 02:24:09;;;;;;;11.00;5.30;;;;;;;6.12;36.41;100631.23;107900;1268;138118;-73
2022/03/28 02:26:41;;;;;;;12.00;5.90;;;;;;;6.08;36.44;100630.90;107426;1268;108426;-73
2022/03/28 02:29:13;;;;;;;13.00;5.50;;;;;;;6.04;36.61;100624.02;107725;1267;138129;-73
2022/03/28 02:31:45;;;;;;;9.30;5.20;;;;;;;6.00;36.87;100623.70;107652;1268;94942;-73
2022/03/28 02:34:17;;;;;;;9.80;5.00;;;;;;;5.97;36.98;100617.87;107093;1267;111040;-73
2022/03/28 02:36:49;;;;;;;13.00;6.00;;;;;;;5.95;37.02;100620.13;107888;1267;138925;-74
2022/03/28 02:39:21;;;;;;;11.20;5.80;;;;;;;5.93;37.02;100621.35;107033;1270;108907;-73
2022/03/28 02:41:53;;;;;;;11.50;5.70;;;;;;;5.89;37.11;100618.92;107597;1267;138637;-74
2022/03/28 02:44:25;;;;;;;11.90;5.90;;;;;;;5.88;37.14;100620.83;107888;1268;94843;-73
2022/03/28 02:46:58;;;;;;;11.50;6.30;;;;;;;5.88;37.38;100617.02;107554;1268;137309;-73
2022/03/28 02:49:29;;;;;;;12.20;5.60;;;;;;;5.87;37.62;100623.59;107905;1270;108841;-72
2022/03/28 02:52:02;;;;;;;11.10;5.80;;;;;;;5.85;37.45;100619.29;107910;1268;108849;-73
2022/03/28 02:54:34;;;;;;;12.60;6.50;;;;;;;5.84;37.56;100617.56;107833;1268;138198;-74
2022/03/28 02:57:06;;;;;;;13.90;6.10;;;;;;;5.81;37.55;100614.32;107021;1268;96789;-73
2022/03/28 02:59:38;;;;;;;12.00;6.20;;;;;;;5.80;37.78;100606.39;106372;1271;137125;-73
2022/03/28 03:02:10;;;;;;;13.70;6.60;;;;;;;5.77;37.90;100600.90;106486;1268;108198;-73
2022/03/28 03:04:42;;;;;;;12.10;6.10;;;;;;;5.74;37.92;100598.15;106292;1269;137712;-73
2022/03/28 03:07:14;;;;;;;10.40;6.10;;;;;;;5.71;38.10;100600.05;106454;1268;96481;-73
2022/03/28 03:09:48;;;;;;;13.40;6.60;;;;;;;5.68;38.27;100593.35;106505;1268;96505;-72
2022/03/28 03:12:20;;;;;;;10.40;5.90;;;;;;;5.65;38.09;100595.27;106397;1268;138176;-73
2022/03/28 03:14:53;;;;;;;12.10;5.90;;;;;;;5.61;38.13;100595.14;106445;1268;107375;-73
2022/03/28 03:17:25;;;;;;;11.80;6.40;;;;;;;5.58;38.48;100596.20;106356;1268;138385;-73
2022/03/28 03:19:57;;;;;;;15.40;6.90;;;;;;;5.56;38.55;100591.19;106459;1270;96469;-73
2022/03/28 03:22:29;;;;;;;12.00;6.70;;;;;;;5.53;38.52;100591.04;106514;1268;96490;-73
2022/03/28 03:25:01;;;;;;;10.80;6.60;;;;;;;5.49;38.80;100588.48;106366;1268;137033;-73
2022/03/28 03:27:35;;;;;;;11.40;6.50;;;;;;;5.44;38.97;100585.23;106484;1269;108710;-73
2022/03/28 03:30:10;;;;;;;13.30;7.00;;;;;;;5.42;38.99;100579.91;107686;1268;137327;-73
2022/03/28 03:32:42;;;;;;;15.80;7.40;;;;;;;5.39;39.21;100577.33;106646;1268;96912;-73
2022/03/28 03:35:15;;;;;;;13.60;6.30;;;;;;;5.35;39.36;100574.23;106386;1268;138451;-73
2022/03/28 03:37:46;;;;;;;12.20;6.40;;;;;;;5.32;39.49;100567.36;106485;1269;111053;-73
2022/03/28 03:40:19;;;;;;;16.20;7.80;;;;;;;5.29;39.54;100566.86;106436;1268;108710;-73
2022/03/28 03:42:51;;;;;;;14.70;7.20;;;;;;;5.24;39.84;100564.48;106342;1267;137523;-73
2022/03/28 03:45:23;;;;;;;13.80;6.70;;;;;;;5.22;39.91;100567.59;106444;1268;95741;-73
2022/03/28 03:47:55;;;;;;;9.90;6.00;;;;;;;5.17;39.91;100562.27;106328;1271;137242;-73
2022/03/28 03:50:26;;;;;;;13.70;6.90;;;;;;;5.14;39.82;100557.98;106476;1268;110984;-72
2022/03/28 03:52:58;;;;;;;14.90;6.70;;;;;;;5.12;40.18;100553.52;106331;1268;137625;-73
2022/03/28 03:55:30;;;;;;;12.20;6.50;;;;;;;5.09;40.33;100555.60;106542;1268;108709;-74
2022/03/28 03:58:02;;;;;;;14.50;7.10;;;;;;;5.06;40.49;100551.83;106504;1268;96609;-73
2022/03/28 04:00:35;;;;;;;13.90;6.90;;;;;;;5.04;40.54;100548.56;106393;1268;137172;-74
2022/03/28 04:03:07;;;;;;;11.90;6.90;;;;;;;5.04;40.61;100550.11;106504;1268;110520;-74
2022/03/28 04:05:39;;;;;;;14.00;7.00;;;;;;;5.02;40.70;100544.93;106386;1270;138122;-74
2022/03/28 04:08:11;;;;;;;13.60;6.80;;;;;;;5.00;40.74;100541.66;106513;1268;109104;-74
2022/03/28 04:10:43;;;;;;;12.40;6.30;;;;;;;4.97;40.91;100541.00;106374;1269;138371;-73
2022/03/28 04:13:17;;;;;;;14.80;6.90;;;;;;;4.96;40.98;100536.35;106463;1270;96536;-74
2022/03/28 04:15:50;;;;;;;14.60;7.10;;;;;;;4.95;41.28;100538.09;107930;1268;111223;-74
2022/03/28 04:18:25;;;;;;;11.00;6.60;;;;;;;4.92;41.36;100529.83;107878;1266;137313;-75
2022/03/28 04:20:57;;;;;;;16.10;7.20;;;;;;;4.93;41.58;100525.34;107970;1267;107709;-75
2022/03/28 04:23:29;;;;;;;15.30;7.80;;;;;;;4.93;41.60;100527.40;107846;1267;137629;-74
2022/03/28 04:26:01;;;;;;;15.00;7.40;;;;;;;4.95;41.79;100528.78;108000;1267;94756;-75
2022/03/28 04:28:33;;;;;;;16.10;7.50;;;;;;;4.97;41.78;100523.23;107930;1267;110026;-74
2022/03/28 04:31:05;;;;;;;12.40;7.20;;;;;;;5.00;41.78;100519.27;107539;1268;137128;-75
2022/03/28 04:33:38;;;;;;;13.50;7.00;;;;;;;5.03;42.06;100519.09;106483;1267;108753;-74
2022/03/28 04:36:10;;;;;;;14.40;7.70;;;;;;;5.07;42.10;100515.63;106316;1267;137484;-74
2022/03/28 04:38:42;;;;;;;15.20;8.00;;;;;;;5.11;42.06;100515.08;106429;1270;96491;-74
2022/03/28 04:41:14;;;;;;;15.60;7.90;;;;;;;5.19;41.91;100512.11;106299;1268;137750;-74
2022/03/28 04:43:46;;;;;;;14.70;7.70;;;;;;;5.26;42.16;100506.89;106468;1268;108943;-74
2022/03/28 04:46:18;;;;;;;16.70;8.30;;;;;;;5.37;42.05;100506.30;106503;1268;108028;-74
2022/03/28 04:48:50;;;;;;;18.40;8.00;;;;;;;5.50;42.07;100509.48;106306;1268;137296;-73
2022/03/28 04:51:22;;;;;;;16.10;7.90;;;;;;;5.73;41.98;100496.88;106456;1269;96478;-74
2022/03/28 04:53:54;;;;;;;17.70;7.90;;;;;;;6.00;41.62;100493.56;106346;1268;138964;-74
2022/03/28 04:56:26;;;;;;;14.80;8.10;;;;;;;6.37;41.49;100487.83;106477;1268;108746;-73
2022/03/28 04:58:58;;;;;;;16.80;8.50;;;;;;;6.95;40.97;100485.55;106365;1268;137885;-73
2022/03/28 05:01:31;;;;;;;16.90;8.70;;;;;;;7.67;39.96;100483.77;106490;1268;96446;-75
2022/03/28 05:04:03;;;;;;;17.20;8.10;;;;;;;8.33;39.45;100479.84;106905;1268;96487;-73
2022/03/28 05:06:35;;;;;;;19.10;8.80;;;;;;;9.02;38.38;100479.80;106336;1268;137618;-75
2022/03/28 05:09:07;;;;;;;18.30;8.80;;;;;;;9.77;37.54;100478.91;106467;1268;109038;-75
2022/03/28 05:11:39;;;;;;;14.00;8.00;;;;;;;10.59;36.66;100476.55;106346;1268;137518;-74
2022/03/28 05:14:11;;;;;;;16.70;8.30;;;;;;;11.42;35.67;100473.00;106482;1268;96500;-74
2022/03/28 05:16:43;;;;;;;17.60;8.40;;;;;;;12.28;34.69;100472.54;106352;1268;137740;-72
2022/03/28 05:19:15;;;;;;;16.10;8.00;;;;;;;13.00;33.39;100461.70;106517;1268;110556;-74
2022/03/28 05:21:47;;;;;;;13.80;8.10;;;;;;;13.56;32.52;100459.99;106486;1270;109254;-74
2022/03/28 05:24:21;;;;;;;15.90;8.10;;;;;;;14.21;31.69;100460.75;106379;1268;139054;-74
2022/03/28 05:26:52;;;;;;;18.30;9.00;;;;;;;14.90;30.92;100460.10;106482;1268;96555;-75
2022/03/28 05:29:24;;;;;;;19.50;8.60;;;;;;;15.59;30.07;100455.54;106386;1268;138936;-80
2022/03/28 05:31:56;;;;;;;14.40;8.30;;;;;;;16.19;29.11;100445.31;106423;1268;111498;-81
2022/03/28 05:34:30;;;;;;;14.80;8.30;;;;;;;16.93;28.69;100440.86;106444;1269;108425;-78
2022/03/28 05:37:05;;;;;;;16.00;8.90;;;;;;;17.82;27.67;100439.82;106316;1268;138638;-79
2022/03/28 05:39:37;;;;;;;15.60;8.50;;;;;;;18.63;27.12;100440.34;106444;1268;96484;-78
2022/03/28 05:42:10;;;;;;;12.90;8.60;;;;;;;19.88;26.54;100437.98;106334;1268;137659;-78
2022/03/28 05:44:43;;;;;;;14.20;8.10;;;;;;;20.98;25.20;100435.45;106486;1268;110421;-78
2022/03/28 05:47:15;;;;;;;17.40;8.70;;;;;;;21.90;24.42;100436.22;106353;1268;138086;-73
2022/03/28 05:49:47;;;;;;;17.70;8.40;;;;;;;22.68;23.39;100439.38;106424;1268;108217;-78
2022/03/28 05:52:19;;;;;;;17.80;8.50;;;;;;;23.37;22.82;100435.76;106459;1268;97198;-79
2022/03/28 05:54:51;;;;;;;17.40;8.40;;;;;;;23.84;22.08;100434.66;106371;1268;137567;-80
2022/03/28 05:57:23;;;;;;;14.50;8.70;;;;;;;24.10;21.64;100434.20;106506;1270;110684;-81
2022/03/28 05:59:58;;;;;;;;;;;;;;;24.36;20.96;100434.69;106950;1269;138761;-79
2022/03/28 06:02:30;;;;;;;12.50;8.50;;;;;;;24.51;20.37;100427.48;106666;1268;107911;-80
2022/03/28 06:05:03;;;;;;;14.70;9.10;;;;;;;24.71;20.39;100429.27;106420;1268;138479;-79
2022/03/28 06:07:35;;;;;;;13.70;9.00;;;;;;;25.14;20.21;100429.16;107925;1267;95816;-81
2022/03/28 06:10:08;;;;;;;16.30;8.80;;;;;;;25.35;19.44;100421.42;107913;1268;110801;-81
2022/03/28 06:12:40;;;;;;;13.60;8.40;;;;;;;25.60;19.38;100418.18;107476;1268;138365;-80
2022/03/28 06:15:12;;;;;;;12.50;8.70;;;;;;;25.88;19.34;100415.27;106886;1268;108805;-80
2022/03/28 06:17:44;;;;;;;12.30;8.50;;;;;;;26.12;19.00;100411.79;106373;1268;137898;-80
2022/03/28 06:20:17;;;;;;;14.60;8.80;;;;;;;26.68;19.05;100414.69;107642;1268;96372;-79
2022/03/28 06:22:48;;;;;;;14.90;8.90;;;;;;;27.26;18.46;100411.20;107832;1267;138934;-79
2022/03/28 06:25:21;;;;;;;14.70;8.30;;;;;;;27.32;17.62;100406.15;107549;1267;107494;-80
2022/03/28 06:28:04;;;;;;;17.40;8.10;;;;;;;27.24;17.70;100401.95;107087;1267;108390;-80
2022/03/28 06:30:36;;;;;;;17.60;9.20;;;;;;;27.28;17.64;100395.80;107783;1269;139706;-79
2022/03/28 06:33:08;;;;;;;15.50;8.80;;;;;;;27.53;17.65;100394.02;107212;1268;96490;-81
2022/03/28 06:35:41;;;;;;;14.10;8.90;;;;;;;27.64;17.37;100392.02;107365;1269;138699;-81
2022/03/28 06:38:13;;;;;;;14.20;8.30;;;;;;;27.73;17.09;100389.31;107528;1268;106002;-80
2022/03/28 06:40:45;;;;;;;16.20;9.10;;;;;;;27.90;17.24;100387.27;106309;1268;137778;-80
2022/03/28 06:43:17;;;;;;;16.00;8.20;;;;;;;28.31;16.98;100387.84;107163;1268;96535;-79
2022/03/28 06:45:50;;;;;;;18.00;9.00;;;;;;;28.49;16.78;100388.10;106448;1267;96469;-74
2022/03/28 06:48:23;;;;;;;16.50;8.50;;;;;;;28.77;16.75;100382.10;107057;1267;137990;-79
2022/03/28 06:51:06;;;;;;;15.50;9.00;;;;;;;28.94;16.50;100377.65;107903;1267;108951;-79
2022/03/28 06:53:39;;;;;;;16.40;8.70;;;;;;;29.09;16.50;100374.52;107836;1267;138129;-80
2022/03/28 06:56:11;;;;;;;13.90;9.40;;;;;;;29.30;16.31;100371.83;106838;1268;96471;-79
2022/03/28 06:58:43;;;;;;;15.20;8.30;;;;;;;29.39;16.30;100371.01;106506;1270;138100;-76
2022/03/28 07:01:15;;;;;;;13.40;9.10;;;;;;;29.58;16.26;100365.10;106436;1268;110737;-79
2022/03/28 07:03:47;;;;;;;16.50;8.80;;;;;;;29.79;16.17;100362.86;106911;1268;108943;-80
2022/03/28 07:06:20;;;;;;;17.90;9.30;;;;;;;30.01;16.13;100359.19;107813;1267;138933;-81
2022/03/28 07:08:53;;;;;;;15.40;8.40;;;;;;;30.26;15.94;100355.48;107550;1268;96584;-80
2022/03/28 07:11:26;;;;;;;16.10;9.00;;;;;;;30.41;16.01;100354.29;106523;1270;138265;-80
2022/03/28 07:13:58;;;;;;;16.40;9.00;;;;;;;30.46;15.95;100351.91;106439;1268;111291;-81
2022/03/28 07:16:30;;;;;;;14.30;8.30;;;;;;;30.33;15.87;100345.14;106462;1270;108872;-80
2022/03/28 07:19:03;;;;;;;14.80;8.40;;;;;;;30.21;15.95;100340.63;106115;1267;137752;-80
2022/03/28 07:21:35;;;;;;;15.20;8.80;;;;;;;30.06;15.93;100343.72;106443;1268;96555;-80
2022/03/28 07:24:08;;;;;;;15.30;9.00;;;;;;;29.90;16.31;100340.65;107489;1267;137552;-82
2022/03/28 07:26:41;;;;;;;14.40;9.00;;;;;;;29.88;16.31;100334.84;106738;1268;110510;-78
2022/03/28 07:29:14;;;;;;;13.30;8.50;;;;;;;29.61;16.30;100334.83;106346;1270;138336;-77
2022/03/28 07:31:47;;;;;;;13.70;8.40;;;;;;;29.07;16.55;100331.06;107887;1268;107425;-84
2022/03/28 07:34:32;;;;;;;14.80;8.70;;;;;;;28.74;16.94;100331.02;106612;1268;97296;-79
2022/03/28 07:37:06;;;;;;;12.10;8.50;;;;;;;28.83;17.16;100330.77;106222;1268;137519;-80
2022/03/28 07:39:40;;;;;;;12.10;8.50;;;;;;;28.92;17.09;100324.08;107019;1268;111462;-79
2022/03/28 07:42:13;;;;;;;18.00;8.50;;;;;;;28.75;17.38;100324.26;107396;1268;137634;-79
2022/03/28 07:44:47;;;;;;;15.70;8.80;;;;;;;28.82;17.49;100323.33;107593;1268;107419;-78
2022/03/28 07:47:25;;;;;;;17.40;9.30;;;;;;;28.79;17.66;100320.68;107741;1268;139776;-78
2022/03/28 07:49:59;;;;;;;12.90;8.50;;;;;;;28.70;17.54;100314.93;107265;1268;96503;-77
2022/03/28 07:52:32;;;;;;;18.60;8.70;;;;;;;28.84;17.65;100307.54;106428;1268;111096;-78
2022/03/28 07:55:06;;;;;;;18.70;9.00;;;;;;;29.13;17.48;100299.27;107732;1268;138290;-79
2022/03/28 07:57:38;;;;;;;18.10;8.60;;;;;;;29.36;17.44;100298.30;107446;1268;108855;-78
2022/03/28 08:00:14;;;;;;;13.10;8.80;;;;;;;29.66;17.43;100294.42;106376;1268;137716;-76
2022/03/28 08:02:56;;;;;;;16.80;8.70;;;;;;;29.82;17.15;100286.96;107459;1268;94713;-77
2022/03/28 08:05:29;;;;;;;18.80;9.00;;;;;;;29.85;17.21;100281.71;106204;1268;137533;-77
2022/03/28 08:08:00;;;;;;;18.40;9.20;;;;;;;29.99;17.12;100278.34;107453;1268;108846;-78
2022/03/28 08:10:32;;;;;;;23.20;9.30;;;;;;;29.91;16.99;100267.45;106897;1267;107641;-78
2022/03/28 08:13:05;;;;;;;17.10;8.90;;;;;;;29.74;17.30;100274.39;106337;1268;138470;-77
2022/03/28 08:15:38;;;;;;;17.20;9.40;;;;;;;29.61;17.48;100271.56;106536;1268;96485;-78
2022/03/28 08:18:10;;;;;;;16.90;9.40;;;;;;;29.63;17.52;100264.75;106565;1268;137972;-78
2022/03/28 08:20:43;;;;;;;14.30;8.20;;;;;;;29.63;17.48;100254.88;106465;1268;108491;-78
2022/03/28 08:23:16;;;;;;;16.40;8.10;;;;;;;29.68;17.51;100256.84;107711;1268;138095;-78
2022/03/28 08:25:48;;;;;;;15.60;8.50;;;;;;;29.57;17.69;100261.83;107842;1269;94852;-78
2022/03/28 08:28:20;;;;;;;16.70;8.50;;;;;;;29.25;17.74;100256.00;107150;1268;94481;-77
2022/03/28 08:30:52;;;;;;;13.50;8.90;;;;;;;29.19;17.95;100251.34;106214;1269;137719;-77
2022/03/28 08:33:24;;;;;;;17.70;8.70;;;;;;;29.42;18.00;100254.52;107595;1267;109802;-78
2022/03/28 08:35:56;;;;;;;21.40;9.00;;;;;;;29.47;17.72;100254.52;106543;1268;137640;-78
2022/03/28 08:38:28;;;;;;;22.10;9.10;;;;;;;29.32;17.91;100242.01;107581;1268;95050;-78
2022/03/28 08:41:00;;;;;;;16.10;8.80;;;;;;;29.25;18.12;100244.91;106584;1268;139458;-78
2022/03/28 08:43:32;;;;;;;19.80;8.90;;;;;;;29.16;18.31;100241.21;107875;1268;110258;-77
2022/03/28 08:46:08;;;;;;;21.80;8.20;;;;;;;29.13;18.40;100234.81;107894;1268;108602;-72
2022/03/28 08:48:41;;;;;;;19.00;8.60;;;;;;;29.09;18.36;100230.09;107820;1268;138463;-82
2022/03/28 08:51:16;;;;;;;17.30;8.00;;;;;;;29.05;18.46;100231.77;106961;1269;97834;-78
2022/03/28 08:53:48;;;;;;;15.00;8.00;;;;;;;28.80;18.38;100222.27;107604;1268;137525;-78
2022/03/28 08:56:20;;;;;;;22.20;8.20;;;;;;;28.50;18.47;100229.11;107825;1268;110493;-81
2022/03/28 08:59:11;;;;;;;20.90;8.20;;;;;;;28.28;18.78;100224.67;106334;1267;137866;-77
2022/03/28 09:01:45;;;;;;;19.10;7.30;;;;;;;28.10;18.57;100216.61;106496;1268;108279;-77
2022/03/28 09:04:17;;;;;;;18.10;7.70;;;;;;;27.77;18.59;100213.70;106538;1268;96581;-77
2022/03/28 09:06:49;;;;;;;19.60;8.50;;;;;;;27.37;19.15;100212.41;106489;1270;138218;-78
2022/03/28 09:09:24;;;;;;;13.60;8.00;;;;;;;27.39;19.32;100215.95;107917;1269;110887;-78
2022/03/28 09:11:58;;;;;;;15.70;7.90;;;;;;;27.31;19.13;100202.22;107623;1268;137613;-78
2022/03/28 09:14:32;;;;;;;14.50;7.50;;;;;;;27.38;19.30;100199.64;107902;1269;106789;-78
2022/03/28 09:17:07;;;;;;;19.80;7.70;;;;;;;27.25;18.90;100198.89;107768;1268;139075;-78
2022/03/28 09:19:47;;;;;;;15.50;7.70;;;;;;;27.13;19.39;100200.16;107983;1268;94611;-78
2022/03/28 09:22:23;;;;;;;12.10;6.20;;;;;;;27.13;19.06;100181.91;107910;1268;111132;-78
2022/03/28 09:24:57;;;;;;;21.90;8.20;;;;;;;27.00;19.17;100187.54;107838;1267;138444;-79
2022/03/28 09:27:31;;;;;;;16.30;7.40;;;;;;;27.11;19.76;100184.21;106621;1268;107628;-77
2022/03/28 09:30:07;;;;;;;14.00;7.00;;;;;;;27.27;19.46;100182.09;106806;1268;139047;-77
2022/03/28 09:32:40;;;;;;;16.30;6.90;;;;;;;27.50;19.24;100180.52;107918;1268;94874;-77
2022/03/28 09:35:20;;;;;;;14.30;6.80;;;;;;;27.56;18.48;100170.64;107759;1268;137715;-77
2022/03/28 09:38:04;;;;;;;17.30;7.00;;;;;;;27.53;18.45;100172.60;107859;1268;108894;-77
2022/03/28 09:40:41;;;;;;;21.00;6.90;;;;;;;27.17;17.75;100158.77;106514;1270;108857;-78
2022/03/28 09:43:21;;;;;;;20.20;7.20;;;;;;;26.78;17.96;100158.17;107218;1268;137664;-77
2022/03/28 09:45:54;;;;;;;19.60;7.80;;;;;;;26.72;18.41;100156.27;106682;1268;96347;-77
2022/03/28 09:48:29;;;;;;;13.50;7.50;;;;;;;26.69;18.47;100148.37;106640;1268;137794;-77
2022/03/28 09:51:03;;;;;;;16.70;7.40;;;;;;;26.66;18.78;100152.36;107785;1269;108360;-72
2022/03/28 09:53:38;;;;;;;17.70;7.20;;;;;;;26.65;18.37;100137.44;107787;1268;138950;-84
2022/03/28 09:56:12;;;;;;;13.80;7.20;;;;;;;26.36;18.56;100141.69;107980;1267;95834;-78
2022/03/28 09:58:47;;;;;;;12.30;7.00;;;;;;;26.06;18.70;100130.05;106625;1270;96828;-85
2022/03/28 10:01:22;;;;;;;16.70;7.50;;;;;;;25.63;18.52;100132.69;106407;1268;137509;-80
2022/03/28 10:03:58;;;;;;;22.00;7.00;;;;;;;25.24;18.83;100131.05;107001;1267;108873;-81
2022/03/28 10:06:31;;;;;;;16.50;7.00;;;;;;;25.10;18.99;100132.41;106224;1270;137924;-68
2022/03/28 10:09:04;;;;;;;14.20;7.40;;;;;;;25.15;19.44;100127.34;106407;1268;96489;-78
2022/03/28 10:11:37;;;;;;;14.50;6.90;;;;;;;25.18;19.47;100134.20;107377;1268;138255;-78
2022/03/28 10:14:09;;;;;;;16.30;7.50;;;;;;;25.16;19.49;100128.77;107734;1267;110972;-78
2022/03/28 10:16:42;;;;;;;20.20;7.50;;;;;;;25.08;19.62;100123.74;106542;1268;108978;-78
2022/03/28 10:19:16;;;;;;;22.70;7.20;;;;;;;25.06;19.50;100113.77;106552;1268;138992;-78
2022/03/28 10:21:49;;;;;;;19.70;7.10;;;;;;;24.94;19.71;100122.02;106901;1268;96468;-77
2022/03/28 10:24:28;;;;;;;17.00;8.20;;;;;;;24.82;19.61;100119.27;106243;1268;137696;-77
2022/03/28 10:27:02;;;;;;;18.80;7.70;;;;;;;24.63;19.79;100106.92;107648;1270;109153;-76
2022/03/28 10:29:39;;;;;;;17.50;7.80;;;;;;;24.45;20.21;100107.39;107774;1268;139228;-80
2022/03/28 10:32:16;;;;;;;15.80;7.80;;;;;;;24.28;20.14;100099.17;107703;1269;108932;-79
2022/03/28 10:34:52;;;;;;;13.70;6.60;;;;;;;24.01;20.35;100089.70;107901;1268;94885;-79
2022/03/28 10:37:30;;;;;;;;;;;;;;;23.90;20.66;100096.20;107846;1268;138415;-79
2022/03/28 10:40:17;;;;;;;;;;;;;;;23.78;20.68;100083.63;107900;1269;109994;-78
2022/03/28 10:42:52;;;;;;;25.30;7.20;;;;;;;23.53;21.08;100083.17;107865;1267;123984;-78
2022/03/28 10:45:34;;;;;;;15.50;7.50;;;;;;;23.56;21.32;100073.91;107834;1269;107759;-76
2022/03/28 10:48:07;;;;;;;15.10;6.80;;;;;;;23.56;21.63;100077.13;107313;1267;139167;-78
2022/03/28 10:50:48;;;;;;;22.40;7.50;;;;;;;23.62;21.78;100063.83;107947;1268;94997;-78
2022/03/28 10:53:29;;;;;;;18.00;6.20;;;;;;;23.67;21.66;100056.08;107861;1268;137641;-76
2022/03/28 10:56:03;;;;;;;9.50;5.30;;;;;;;23.40;21.19;100055.75;107948;1268;107739;-77
2022/03/28 10:58:39;;;;;;;19.40;5.60;;;;;;;23.15;21.52;100052.77;106573;1268;108852;-77
2022/03/28 11:01:28;;;;;;;17.70;5.80;;;;;;;23.10;21.96;100047.02;106217;1268;137719;-76
2022/03/28 11:04:07;;;;;;;21.40;5.90;;;;;;;23.14;21.99;100040.85;106487;1270;96469;-77
2022/03/28 11:06:59;;;;;;;12.30;5.10;;;;;;;22.94;22.00;100038.23;106710;1268;137795;-77
2022/03/28 11:09:48;;;;;;;17.90;5.80;;;;;;;22.70;21.94;100031.55;107128;1268;107892;-77
2022/03/28 11:12:28;;;;;;;23.60;4.70;;;;;;;22.62;22.05;100029.58;106869;1268;136916;-78
2022/03/28 11:15:02;;;;;;;17.20;4.80;;;;;;;22.64;22.16;100028.36;107715;1268;95158;-79
2022/03/28 11:17:36;;;;;;;18.00;5.10;;;;;;;22.56;22.08;100013.56;106388;1268;139320;-76
2022/03/28 11:20:14;;;;;;;30.90;5.10;;;;;;;22.42;22.60;100016.79;107578;1270;110705;-77
2022/03/28 11:22:50;;;;;;;23.00;4.70;;;;;;;22.22;22.39;100004.30;106758;1268;107777;-77
2022/03/28 11:25:47;;;;;;;14.20;4.20;;;;;;;21.94;22.40;100007.14;107791;1268;138093;-78
2022/03/28 11:28:26;;;;;;;18.80;4.30;;;;;;;21.75;22.65;100009.44;107885;1268;94853;-80
2022/03/28 11:31:02;;;;;;;23.20;4.10;;;;;;;21.68;22.91;100010.14;107809;1267;137583;-78
2022/03/28 11:33:42;;;;;;;31.90;4.80;;;;;;;21.62;23.14;100002.16;107955;1268;110744;-78
2022/03/28 11:36:18;;;;;;;13.80;4.30;;;;;;;21.59;23.25;99998.00;107861;1268;138056;-78